Terminal Aerodrome Forecast
Issued by NWS

Home | Current Version | Previous Version | Text Only | Print | Product List | Glossary On
Versions: 1 2 3 4 5 6 7 8 9 10 11 12 13 14 15 16 17 18 19 20 21 22 23 24 25 26
000
FTUS45 KSLC 292320
TAFPVU
TAF
KPVU 292320Z 3000/3024 31004KT P6SM VCSH BKN070 BKN150
     FM300400 VRB04KT P6SM BKN150
     FM301500 14007KT P6SM SCT080 BKN120
     FM302100 22012G18KT P6SM SCT080 BKN120
      AMD LTD TO CLD VIS AND WIND=

USA.gov is the U.S. government's official web portal to all federal, state and local government web resources and services.